sensor_id;sensor_type;location;lat;lon;timestamp;pressure;altitude;pressure_sealevel;temperature;humidity
28000;BME280;15328;50.860;10.562;2023-02-18T00:00:16;96870.03;;;10.87;64.30
28000;BME280;15328;50.860;10.562;2023-02-18T00:05:17;96855.31;;;10.84;63.80
28000;BME280;15328;50.860;10.562;2023-02-18T00:10:17;96855.94;;;10.80;64.58
28000;BME280;15328;50.860;10.562;2023-02-18T00:15:18;96864.13;;;10.78;64.63
28000;BME280;15328;50.860;10.562;2023-02-18T00:20:18;96869.47;;;10.78;64.76
28000;BME280;15328;50.860;10.562;2023-02-18T00:25:19;96873.94;;;10.84;64.38
28000;BME280;15328;50.860;10.562;2023-02-18T00:30:19;96858.03;;;10.71;65.16
28000;BME280;15328;50.860;10.562;2023-02-18T00:35:19;96859.63;;;10.79;64.36
28000;BME280;15328;50.860;10.562;2023-02-18T00:40:20;96850.22;;;10.76;65.01
28000;BME280;15328;50.860;10.562;2023-02-18T00:45:20;96861.28;;;10.73;64.82
28000;BME280;15328;50.860;10.562;2023-02-18T00:50:21;96851.25;;;10.75;64.50
28000;BME280;15328;50.860;10.562;2023-02-18T00:55:21;96863.31;;;10.78;64.17
28000;BME280;15328;50.860;10.562;2023-02-18T01:00:21;96871.94;;;10.73;63.77
28000;BME280;15328;50.860;10.562;2023-02-18T01:05:24;96855.75;;;10.75;63.83
28000;BME280;15328;50.860;10.562;2023-02-18T01:10:25;96870.28;;;10.79;64.13
28000;BME280;15328;50.860;10.562;2023-02-18T01:15:25;96862.50;;;10.77;63.36
28000;BME280;15328;50.860;10.562;2023-02-18T01:20:26;96871.91;;;10.67;64.14
28000;BME280;15328;50.860;10.562;2023-02-18T01:25:26;96850.84;;;10.72;64.30
28000;BME280;15328;50.860;10.562;2023-02-18T01:30:26;96836.34;;;10.61;64.68
28000;BME280;15328;50.860;10.562;2023-02-18T01:35:27;96843.28;;;10.69;64.56
28000;BME280;15328;50.860;10.562;2023-02-18T01:40:28;96857.59;;;10.68;64.47
28000;BME280;15328;50.860;10.562;2023-02-18T01:50:35;96866.59;;;10.67;63.78
28000;BME280;15328;50.860;10.562;2023-02-18T01:55:37;96867.63;;;10.66;64.36
28000;BME280;15328;50.860;10.562;2023-02-18T02:00:38;96859.66;;;10.72;63.58
28000;BME280;15328;50.860;10.562;2023-02-18T02:05:39;96868.06;;;10.69;64.07
28000;BME280;15328;50.860;10.562;2023-02-18T02:16:22;96855.78;;;10.62;65.08
28000;BME280;15328;50.860;10.562;2023-02-18T02:37:48;96845.34;;;10.53;64.55
28000;BME280;15328;50.860;10.562;2023-02-18T02:53:21;96838.16;;;10.67;64.24
28000;BME280;15328;50.860;10.562;2023-02-18T02:58:22;96839.63;;;10.50;64.70
28000;BME280;15328;50.860;10.562;2023-02-18T03:03:33;96824.47;;;10.57;63.97
28000;BME280;15328;50.860;10.562;2023-02-18T03:08:43;96815.09;;;10.48;64.39
28000;BME280;15328;50.860;10.562;2023-02-18T03:24:17;96820.81;;;10.51;64.52
28000;BME280;15328;50.860;10.562;2023-02-18T03:29:20;96827.38;;;10.49;65.33
28000;BME280;15328;50.860;10.562;2023-02-18T03:34:30;96831.44;;;10.38;66.16
28000;BME280;15328;50.860;10.562;2023-02-18T03:39:34;96835.75;;;10.52;65.29
28000;BME280;15328;50.860;10.562;2023-02-18T03:44:35;96833.50;;;10.49;65.40
28000;BME280;15328;50.860;10.562;2023-02-18T03:49:35;96843.28;;;10.62;65.65
28000;BME280;15328;50.860;10.562;2023-02-18T03:54:36;96844.94;;;10.57;65.50
28000;BME280;15328;50.860;10.562;2023-02-18T03:59:36;96827.56;;;10.47;66.29
28000;BME280;15328;50.860;10.562;2023-02-18T04:04:36;96824.09;;;10.34;66.76
28000;BME280;15328;50.860;10.562;2023-02-18T04:09:37;96828.41;;;10.48;66.18
28000;BME280;15328;50.860;10.562;2023-02-18T04:14:37;96810.19;;;10.45;66.74
28000;BME280;15328;50.860;10.562;2023-02-18T04:19:37;96813.25;;;10.48;66.18
28000;BME280;15328;50.860;10.562;2023-02-18T04:24:38;96793.84;;;10.41;66.91
28000;BME280;15328;50.860;10.562;2023-02-18T04:29:38;96792.78;;;10.36;66.70
28000;BME280;15328;50.860;10.562;2023-02-18T04:34:38;96761.72;;;10.43;66.00
28000;BME280;15328;50.860;10.562;2023-02-18T04:39:39;96748.41;;;10.43;66.74
28000;BME280;15328;50.860;10.562;2023-02-18T04:44:39;96757.22;;;10.43;66.10
28000;BME280;15328;50.860;10.562;2023-02-18T04:49:39;96765.97;;;10.50;65.96
28000;BME280;15328;50.860;10.562;2023-02-18T04:54:40;96753.53;;;10.44;65.64
28000;BME280;15328;50.860;10.562;2023-02-18T04:59:41;96757.81;;;10.39;65.83
28000;BME280;15328;50.860;10.562;2023-02-18T05:04:42;96750.84;;;10.51;65.29
28000;BME280;15328;50.860;10.562;2023-02-18T05:09:42;96755.72;;;10.54;65.31
28000;BME280;15328;50.860;10.562;2023-02-18T05:14:42;96754.28;;;10.58;64.77
28000;BME280;15328;50.860;10.562;2023-02-18T05:19:43;96738.56;;;10.50;65.01
28000;BME280;15328;50.860;10.562;2023-02-18T05:24:43;96749.41;;;10.48;65.68
28000;BME280;15328;50.860;10.562;2023-02-18T05:29:43;96743.28;;;10.48;65.12
28000;BME280;15328;50.860;10.562;2023-02-18T05:34:44;96734.25;;;10.56;64.84
28000;BME280;15328;50.860;10.562;2023-02-18T05:39:44;96717.66;;;10.60;64.92
28000;BME280;15328;50.860;10.562;2023-02-18T05:44:45;96710.38;;;10.42;65.21
28000;BME280;15328;50.860;10.562;2023-02-18T05:49:45;96713.81;;;10.49;64.52
28000;BME280;15328;50.860;10.562;2023-02-18T05:54:46;96715.00;;;10.60;65.02
28000;BME280;15328;50.860;10.562;2023-02-18T05:59:46;96694.13;;;10.57;64.75
28000;BME280;15328;50.860;10.562;2023-02-18T06:04:47;96694.72;;;10.59;64.14
28000;BME280;15328;50.860;10.562;2023-02-18T06:09:47;96683.66;;;10.62;64.22
28000;BME280;15328;50.860;10.562;2023-02-18T06:14:47;96677.53;;;10.62;64.69
28000;BME280;15328;50.860;10.562;2023-02-18T06:19:48;96671.41;;;10.61;64.60
28000;BME280;15328;50.860;10.562;2023-02-18T06:24:48;96661.75;;;10.67;64.10
28000;BME280;15328;50.860;10.562;2023-02-18T06:29:48;96655.84;;;10.58;65.29
28000;BME280;15328;50.860;10.562;2023-02-18T06:34:49;96656.41;;;10.67;64.75
28000;BME280;15328;50.860;10.562;2023-02-18T06:39:49;96646.94;;;10.46;66.44
28000;BME280;15328;50.860;10.562;2023-02-18T06:44:49;96633.03;;;10.37;67.13
28000;BME280;15328;50.860;10.562;2023-02-18T06:49:50;96644.00;;;10.54;65.98
28000;BME280;15328;50.860;10.562;2023-02-18T06:54:50;96614.94;;;10.59;66.33
28000;BME280;15328;50.860;10.562;2023-02-18T06:59:50;96619.94;;;10.42;66.73
28000;BME280;15328;50.860;10.562;2023-02-18T07:04:51;96601.84;;;10.58;66.45
28000;BME280;15328;50.860;10.562;2023-02-18T07:09:51;96617.38;;;10.61;66.69
28000;BME280;15328;50.860;10.562;2023-02-18T07:14:51;96585.84;;;10.64;66.10
28000;BME280;15328;50.860;10.562;2023-02-18T07:19:52;96596.31;;;10.59;67.04
28000;BME280;15328;50.860;10.562;2023-02-18T07:24:53;96616.03;;;10.45;67.66
28000;BME280;15328;50.860;10.562;2023-02-18T07:29:53;96573.34;;;10.71;66.77
28000;BME280;15328;50.860;10.562;2023-02-18T07:34:54;96565.34;;;10.71;66.00
28000;BME280;15328;50.860;10.562;2023-02-18T07:39:54;96556.94;;;10.68;66.40
28000;BME280;15328;50.860;10.562;2023-02-18T07:44:54;96556.34;;;10.66;66.87
28000;BME280;15328;50.860;10.562;2023-02-18T07:49:55;96586.06;;;10.63;66.92
28000;BME280;15328;50.860;10.562;2023-02-18T07:54:55;96588.59;;;10.82;65.58
28000;BME280;15328;50.860;10.562;2023-02-18T07:59:55;96582.78;;;10.92;65.45
28000;BME280;15328;50.860;10.562;2023-02-18T08:04:56;96572.13;;;10.92;65.24
28000;BME280;15328;50.860;10.562;2023-02-18T08:09:56;96584.31;;;11.06;65.35
28000;BME280;15328;50.860;10.562;2023-02-18T08:14:56;96579.09;;;10.93;65.19
28000;BME280;15328;50.860;10.562;2023-02-18T08:19:57;96583.00;;;11.15;64.47
28000;BME280;15328;50.860;10.562;2023-02-18T08:24:57;96591.97;;;11.21;64.88
28000;BME280;15328;50.860;10.562;2023-02-18T08:29:57;96589.09;;;11.23;64.77
28000;BME280;15328;50.860;10.562;2023-02-18T08:34:58;96584.59;;;11.23;65.99
28000;BME280;15328;50.860;10.562;2023-02-18T08:39:58;96572.75;;;11.19;66.78
28000;BME280;15328;50.860;10.562;2023-02-18T08:44:58;96570.06;;;11.19;66.97
28000;BME280;15328;50.860;10.562;2023-02-18T08:49:59;96563.91;;;11.00;68.02
28000;BME280;15328;50.860;10.562;2023-02-18T08:54:59;96534.94;;;11.10;67.50
28000;BME280;15328;50.860;10.562;2023-02-18T08:59:59;96530.13;;;11.19;68.22
28000;BME280;15328;50.860;10.562;2023-02-18T09:05:00;96535.91;;;11.16;68.25
28000;BME280;15328;50.860;10.562;2023-02-18T09:10:00;96521.03;;;11.08;68.52
28000;BME280;15328;50.860;10.562;2023-02-18T09:15:01;96526.63;;;11.00;68.96
28000;BME280;15328;50.860;10.562;2023-02-18T09:20:01;96533.59;;;11.01;68.44
28000;BME280;15328;50.860;10.562;2023-02-18T09:25:02;96537.44;;;11.05;68.38
28000;BME280;15328;50.860;10.562;2023-02-18T09:30:04;96555.19;;;11.11;68.83
28000;BME280;15328;50.860;10.562;2023-02-18T09:35:05;96548.59;;;10.96;67.86
28000;BME280;15328;50.860;10.562;2023-02-18T09:40:06;96545.97;;;10.89;68.22
28000;BME280;15328;50.860;10.562;2023-02-18T09:45:10;96547.44;;;10.85;68.37
28000;BME280;15328;50.860;10.562;2023-02-18T09:50:21;96525.03;;;10.93;67.63
28000;BME280;15328;50.860;10.562;2023-02-18T09:55:32;96553.56;;;10.86;67.40
28000;BME280;15328;50.860;10.562;2023-02-18T10:00:38;96541.44;;;10.90;67.71
28000;BME280;15328;50.860;10.562;2023-02-18T10:06:16;96524.13;;;10.80;67.32
28000;BME280;15328;50.860;10.562;2023-02-18T10:16:19;96513.53;;;10.74;67.65
28000;BME280;15328;50.860;10.562;2023-02-18T10:21:28;96506.91;;;10.83;66.77
28000;BME280;15328;50.860;10.562;2023-02-18T10:26:33;96497.59;;;10.74;66.95
28000;BME280;15328;50.860;10.562;2023-02-18T10:31:43;96487.31;;;10.77;67.06
28000;BME280;15328;50.860;10.562;2023-02-18T10:36:48;96481.06;;;10.90;65.88
28000;BME280;15328;50.860;10.562;2023-02-18T10:47:33;96472.81;;;10.98;65.20
28000;BME280;15328;50.860;10.562;2023-02-18T10:52:40;96461.47;;;10.84;64.03
28000;BME280;15328;50.860;10.562;2023-02-18T10:57:49;96465.34;;;11.07;64.32
28000;BME280;15328;50.860;10.562;2023-02-18T11:03:13;96456.69;;;11.11;63.90
28000;BME280;15328;50.860;10.562;2023-02-18T11:08:24;96438.22;;;11.17;63.38
28000;BME280;15328;50.860;10.562;2023-02-18T11:13:27;96461.69;;;11.26;62.35
28000;BME280;15328;50.860;10.562;2023-02-18T11:18:34;96434.81;;;11.46;62.48
28000;BME280;15328;50.860;10.562;2023-02-18T11:23:48;96441.34;;;11.98;61.21
28000;BME280;15328;50.860;10.562;2023-02-18T11:28:50;96435.47;;;12.50;59.34
28000;BME280;15328;50.860;10.562;2023-02-18T11:33:57;96408.09;;;12.43;55.37
28000;BME280;15328;50.860;10.562;2023-02-18T11:44:00;96403.53;;;12.31;55.78
28000;BME280;15328;50.860;10.562;2023-02-18T11:49:20;96411.59;;;12.78;56.30
28000;BME280;15328;50.860;10.562;2023-02-18T11:54:27;96418.44;;;12.62;54.43
28000;BME280;15328;50.860;10.562;2023-02-18T11:59:32;96417.19;;;12.23;54.98
28000;BME280;15328;50.860;10.562;2023-02-18T12:04:47;96391.16;;;11.95;55.53
28000;BME280;15328;50.860;10.562;2023-02-18T12:09:55;96407.69;;;11.86;55.31
28000;BME280;15328;50.860;10.562;2023-02-18T12:14:58;96391.13;;;11.65;56.36
28000;BME280;15328;50.860;10.562;2023-02-18T12:35:56;96448.13;;;11.09;59.38
28000;BME280;15328;50.860;10.562;2023-02-18T13:02:51;96462.22;;;10.42;64.72
28000;BME280;15328;50.860;10.562;2023-02-18T13:13:19;96472.28;;;10.33;65.37
28000;BME280;15328;50.860;10.562;2023-02-18T13:18:30;96472.72;;;10.30;64.78
28000;BME280;15328;50.860;10.562;2023-02-18T13:23:37;96473.09;;;10.34;65.48
28000;BME280;15328;50.860;10.562;2023-02-18T13:28:45;96465.41;;;10.19;65.18
28000;BME280;15328;50.860;10.562;2023-02-18T13:33:55;96474.13;;;10.33;65.59
28000;BME280;15328;50.860;10.562;2023-02-18T13:39:09;96464.66;;;10.43;64.80
28000;BME280;15328;50.860;10.562;2023-02-18T13:49:24;96455.00;;;10.17;65.38
28000;BME280;15328;50.860;10.562;2023-02-18T13:54:28;96460.53;;;10.16;66.50
28000;BME280;15328;50.860;10.562;2023-02-18T14:09:41;96462.59;;;10.14;66.51
28000;BME280;15328;50.860;10.562;2023-02-18T14:14:54;96455.56;;;10.26;66.64
28000;BME280;15328;50.860;10.562;2023-02-18T14:30:23;96465.84;;;10.16;66.88
28000;BME280;15328;50.860;10.562;2023-02-18T14:51:32;96496.38;;;10.00;67.67
28000;BME280;15328;50.860;10.562;2023-02-18T14:56:37;96495.75;;;10.05;67.83
28000;BME280;15328;50.860;10.562;2023-02-18T15:01:39;96497.84;;;9.96;68.34
28000;BME280;15328;50.860;10.562;2023-02-18T15:06:39;96506.63;;;9.97;68.73
28000;BME280;15328;50.860;10.562;2023-02-18T15:11:46;96509.31;;;9.90;68.62
28000;BME280;15328;50.860;10.562;2023-02-18T15:16:48;96516.84;;;10.00;68.53
28000;BME280;15328;50.860;10.562;2023-02-18T15:21:50;96520.09;;;10.02;68.44
28000;BME280;15328;50.860;10.562;2023-02-18T15:26:55;96517.25;;;9.97;69.00
28000;BME280;15328;50.860;10.562;2023-02-18T15:31:57;96524.28;;;9.78;70.19
28000;BME280;15328;50.860;10.562;2023-02-18T15:36:59;96509.53;;;9.82;69.29
28000;BME280;15328;50.860;10.562;2023-02-18T15:42:06;96501.59;;;9.75;69.48
28000;BME280;15328;50.860;10.562;2023-02-18T15:47:08;96510.19;;;9.77;69.61
28000;BME280;15328;50.860;10.562;2023-02-18T15:52:09;96484.47;;;9.71;69.99
28000;BME280;15328;50.860;10.562;2023-02-18T15:57:13;96505.53;;;9.66;70.44
28000;BME280;15328;50.860;10.562;2023-02-18T16:02:18;96498.81;;;9.64;70.53
28000;BME280;15328;50.860;10.562;2023-02-18T16:07:36;96502.06;;;9.66;70.42
28000;BME280;15328;50.860;10.562;2023-02-18T16:12:38;96500.78;;;9.75;70.35
28000;BME280;15328;50.860;10.562;2023-02-18T16:17:43;96502.81;;;9.79;69.76
28000;BME280;15328;50.860;10.562;2023-02-18T16:22:52;96497.06;;;9.82;69.63
28000;BME280;15328;50.860;10.562;2023-02-18T16:32:56;96504.31;;;9.62;70.77
28000;BME280;15328;50.860;10.562;2023-02-18T16:37:57;96506.13;;;9.68;71.37
28000;BME280;15328;50.860;10.562;2023-02-18T16:43:12;96514.28;;;9.73;70.26
28000;BME280;15328;50.860;10.562;2023-02-18T16:48:28;96523.72;;;9.63;71.72
28000;BME280;15328;50.860;10.562;2023-02-18T16:53:29;96529.03;;;9.69;70.99
28000;BME280;15328;50.860;10.562;2023-02-18T16:58:29;96521.22;;;9.74;70.76
28000;BME280;15328;50.860;10.562;2023-02-18T17:03:30;96515.91;;;9.74;70.46
28000;BME280;15328;50.860;10.562;2023-02-18T17:08:31;96524.31;;;9.71;70.21
28000;BME280;15328;50.860;10.562;2023-02-18T17:13:31;96526.13;;;9.77;70.42
28000;BME280;15328;50.860;10.562;2023-02-18T17:18:31;96548.38;;;9.83;69.71
28000;BME280;15328;50.860;10.562;2023-02-18T17:23:32;96571.66;;;9.94;69.98
28000;BME280;15328;50.860;10.562;2023-02-18T17:28:32;96555.97;;;9.73;70.70
28000;BME280;15328;50.860;10.562;2023-02-18T17:33:32;96588.44;;;9.81;70.74
28000;BME280;15328;50.860;10.562;2023-02-18T17:38:33;96582.91;;;9.83;70.21
28000;BME280;15328;50.860;10.562;2023-02-18T17:43:33;96568.28;;;9.60;71.50
28000;BME280;15328;50.860;10.562;2023-02-18T17:48:34;96578.44;;;9.77;70.95
28000;BME280;15328;50.860;10.562;2023-02-18T17:53:34;96589.84;;;9.84;70.73
28000;BME280;15328;50.860;10.562;2023-02-18T17:58:34;96577.81;;;9.81;71.01
28000;BME280;15328;50.860;10.562;2023-02-18T18:03:35;96594.59;;;9.75;71.17
28000;BME280;15328;50.860;10.562;2023-02-18T18:08:35;96602.75;;;9.80;70.97
28000;BME280;15328;50.860;10.562;2023-02-18T18:13:35;96609.06;;;9.93;70.66
28000;BME280;15328;50.860;10.562;2023-02-18T18:18:36;96603.13;;;9.84;70.64
28000;BME280;15328;50.860;10.562;2023-02-18T18:23:36;96603.75;;;9.93;70.62
28000;BME280;15328;50.860;10.562;2023-02-18T18:28:37;96612.31;;;9.95;70.00
28000;BME280;15328;50.860;10.562;2023-02-18T18:33:37;96621.13;;;9.88;70.32
28000;BME280;15328;50.860;10.562;2023-02-18T18:38:37;96610.28;;;9.97;69.78
28000;BME280;15328;50.860;10.562;2023-02-18T18:43:38;96622.34;;;9.93;70.45
28000;BME280;15328;50.860;10.562;2023-02-18T18:48:39;96619.66;;;9.99;70.72
28000;BME280;15328;50.860;10.562;2023-02-18T18:53:40;96618.25;;;9.97;70.52
28000;BME280;15328;50.860;10.562;2023-02-18T18:58:40;96608.44;;;9.90;70.59
28000;BME280;15328;50.860;10.562;2023-02-18T19:03:41;96603.28;;;10.02;69.95
28000;BME280;15328;50.860;10.562;2023-02-18T19:08:43;96595.34;;;9.96;70.22
28000;BME280;15328;50.860;10.562;2023-02-18T19:13:44;96606.63;;;9.91;70.79
28000;BME280;15328;50.860;10.562;2023-02-18T19:18:46;96601.47;;;9.96;70.49
28000;BME280;15328;50.860;10.562;2023-02-18T19:23:46;96609.91;;;9.86;71.20
28000;BME280;15328;50.860;10.562;2023-02-18T19:28:46;96611.09;;;9.84;71.67
28000;BME280;15328;50.860;10.562;2023-02-18T19:33:47;96625.03;;;9.79;71.33
28000;BME280;15328;50.860;10.562;2023-02-18T19:38:47;96626.44;;;9.82;71.71
28000;BME280;15328;50.860;10.562;2023-02-18T19:43:48;96634.84;;;9.79;71.61
28000;BME280;15328;50.860;10.562;2023-02-18T19:48:49;96625.22;;;9.84;70.30
28000;BME280;15328;50.860;10.562;2023-02-18T19:53:51;96629.50;;;9.85;69.93
28000;BME280;15328;50.860;10.562;2023-02-18T19:58:54;96633.03;;;9.66;70.03
28000;BME280;15328;50.860;10.562;2023-02-18T20:03:55;96636.91;;;9.64;70.17
28000;BME280;15328;50.860;10.562;2023-02-18T20:08:55;96644.50;;;9.60;70.16
28000;BME280;15328;50.860;10.562;2023-02-18T20:13:56;96638.16;;;9.61;69.81
28000;BME280;15328;50.860;10.562;2023-02-18T20:18:56;96636.53;;;9.60;69.53
28000;BME280;15328;50.860;10.562;2023-02-18T20:23:57;96637.94;;;9.49;69.56
28000;BME280;15328;50.860;10.562;2023-02-18T20:28:58;96640.19;;;9.52;69.22
28000;BME280;15328;50.860;10.562;2023-02-18T20:33:58;96631.41;;;9.52;69.15
28000;BME280;15328;50.860;10.562;2023-02-18T20:38:59;96621.63;;;9.39;69.64
28000;BME280;15328;50.860;10.562;2023-02-18T20:43:59;96613.63;;;9.52;68.59
28000;BME280;15328;50.860;10.562;2023-02-18T20:49:06;96606.25;;;9.68;68.28
28000;BME280;15328;50.860;10.562;2023-02-18T20:54:11;96613.03;;;9.44;69.37
28000;BME280;15328;50.860;10.562;2023-02-18T20:59:17;96615.69;;;9.17;70.98
28000;BME280;15328;50.860;10.562;2023-02-18T21:04:19;96614.47;;;9.33;70.58
28000;BME280;15328;50.860;10.562;2023-02-18T21:09:19;96619.78;;;9.13;71.54
28000;BME280;15328;50.860;10.562;2023-02-18T21:14:20;96630.63;;;9.32;70.67
28000;BME280;15328;50.860;10.562;2023-02-18T21:19:21;96625.91;;;9.47;70.10
28000;BME280;15328;50.860;10.562;2023-02-18T21:24:21;96628.56;;;9.40;70.15
28000;BME280;15328;50.860;10.562;2023-02-18T21:29:21;96628.97;;;9.37;70.00
28000;BME280;15328;50.860;10.562;2023-02-18T21:34:22;96627.34;;;9.23;70.41
28000;BME280;15328;50.860;10.562;2023-02-18T21:39:25;96627.13;;;9.44;69.34
28000;BME280;15328;50.860;10.562;2023-02-18T21:44:25;96637.13;;;9.42;68.95
28000;BME280;15328;50.860;10.562;2023-02-18T21:49:25;96638.13;;;9.54;68.68
28000;BME280;15328;50.860;10.562;2023-02-18T21:54:34;96633.66;;;9.62;68.96
28000;BME280;15328;50.860;10.562;2023-02-18T21:59:36;96616.06;;;9.54;69.02
28000;BME280;15328;50.860;10.562;2023-02-18T22:04:36;96619.13;;;9.64;69.22
28000;BME280;15328;50.860;10.562;2023-02-18T22:09:37;96614.47;;;9.59;69.42
28000;BME280;15328;50.860;10.562;2023-02-18T22:14:38;96597.28;;;9.62;69.81
28000;BME280;15328;50.860;10.562;2023-02-18T22:19:39;96617.50;;;9.63;69.86
28000;BME280;15328;50.860;10.562;2023-02-18T22:24:39;96603.00;;;9.66;69.83
28000;BME280;15328;50.860;10.562;2023-02-18T22:29:40;96599.72;;;9.70;69.80
28000;BME280;15328;50.860;10.562;2023-02-18T22:34:40;96586.44;;;9.70;69.88
28000;BME280;15328;50.860;10.562;2023-02-18T22:39:40;96587.09;;;9.59;70.89
28000;BME280;15328;50.860;10.562;2023-02-18T22:44:41;96576.66;;;9.51;71.15
28000;BME280;15328;50.860;10.562;2023-02-18T22:49:41;96558.03;;;9.57;70.79
28000;BME280;15328;50.860;10.562;2023-02-18T22:54:41;96555.44;;;9.44;71.87
28000;BME280;15328;50.860;10.562;2023-02-18T22:59:42;96534.97;;;9.58;71.08
28000;BME280;15328;50.860;10.562;2023-02-18T23:04:42;96552.53;;;9.52;71.06
28000;BME280;15328;50.860;10.562;2023-02-18T23:09:43;96556.44;;;9.50;71.52
28000;BME280;15328;50.860;10.562;2023-02-18T23:14:43;96569.47;;;9.58;71.36
28000;BME280;15328;50.860;10.562;2023-02-18T23:19:46;96558.09;;;9.44;71.72
28000;BME280;15328;50.860;10.562;2023-02-18T23:24:47;96556.41;;;9.56;71.15
28000;BME280;15328;50.860;10.562;2023-02-18T23:29:49;96547.44;;;9.51;71.62
28000;BME280;15328;50.860;10.562;2023-02-18T23:34:50;96543.75;;;9.52;71.54
28000;BME280;15328;50.860;10.562;2023-02-18T23:39:50;96529.47;;;9.53;71.40
28000;BME280;15328;50.860;10.562;2023-02-18T23:44:51;96526.63;;;9.48;71.64
28000;BME280;15328;50.860;10.562;2023-02-18T23:49:54;96541.72;;;9.54;71.14
28000;BME280;15328;50.860;10.562;2023-02-18T23:54:54;96534.56;;;9.54;70.84
28000;BME280;15328;50.860;10.562;2023-02-18T23:59:54;96511.09;;;9.45;71.30
